sensor_id;sensor_type;location;lat;lon;timestamp;pressure;altitude;pressure_sealevel;temperature;humidity
72921;BME280;61064;51.654;5.476;2023-04-28T00:00:43;101384.84;;;9.72;57.69
72921;BME280;61064;51.654;5.476;2023-04-28T00:03:09;101383.03;;;9.69;58.23
72921;BME280;61064;51.654;5.476;2023-04-28T00:05:34;101378.59;;;9.70;58.28
72921;BME280;61064;51.654;5.476;2023-04-28T00:08:00;101375.94;;;9.68;58.48
72921;BME280;61064;51.654;5.476;2023-04-28T00:10:25;101379.47;;;9.69;58.68
72921;BME280;61064;51.654;5.476;2023-04-28T00:12:50;101380.34;;;9.68;58.77
72921;BME280;61064;51.654;5.476;2023-04-28T00:15:16;101382.97;;;9.66;59.24
72921;BME280;61064;51.654;5.476;2023-04-28T00:17:44;101381.16;;;9.65;59.25
72921;BME280;61064;51.654;5.476;2023-04-28T00:20:10;101382.91;;;9.63;59.69
72921;BME280;61064;51.654;5.476;2023-04-28T00:22:35;101373.94;;;9.56;59.71
72921;BME280;61064;51.654;5.476;2023-04-28T00:25:00;101359.69;;;9.53;60.11
72921;BME280;61064;51.654;5.476;2023-04-28T00:27:26;101360.53;;;9.50;60.39
72921;BME280;61064;51.654;5.476;2023-04-28T00:29:54;101356.03;;;9.46;60.63
72921;BME280;61064;51.654;5.476;2023-04-28T00:32:19;101360.47;;;9.47;60.76
72921;BME280;61064;51.654;5.476;2023-04-28T00:34:45;101347.97;;;9.42;60.88
72921;BME280;61064;51.654;5.476;2023-04-28T00:37:10;101344.41;;;9.40;61.14
72921;BME280;61064;51.654;5.476;2023-04-28T00:39:36;101344.38;;;9.38;61.43
72921;BME280;61064;51.654;5.476;2023-04-28T00:42:01;101342.53;;;9.34;61.67
72921;BME280;61064;51.654;5.476;2023-04-28T00:44:28;101338.03;;;9.32;62.25
72921;BME280;61064;51.654;5.476;2023-04-28T00:46:53;101337.13;;;9.31;62.50
72921;BME280;61064;51.654;5.476;2023-04-28T00:49:19;101335.34;;;9.29;62.96
72921;BME280;61064;51.654;5.476;2023-04-28T00:51:45;101350.41;;;9.30;63.18
72921;BME280;61064;51.654;5.476;2023-04-28T00:54:12;101335.38;;;9.30;63.57
72921;BME280;61064;51.654;5.476;2023-04-28T00:56:38;101331.88;;;9.33;63.50
72921;BME280;61064;51.654;5.476;2023-04-28T00:59:04;101316.78;;;9.32;63.68
72921;BME280;61064;51.654;5.476;2023-04-28T01:01:29;101315.00;;;9.31;63.92
72921;BME280;61064;51.654;5.476;2023-04-28T01:03:56;101312.31;;;9.28;63.98
72921;BME280;61064;51.654;5.476;2023-04-28T01:06:21;101313.94;;;9.21;64.08
72921;BME280;61064;51.654;5.476;2023-04-28T01:08:48;101323.66;;;9.19;64.24
72921;BME280;61064;51.654;5.476;2023-04-28T01:11:14;101322.75;;;9.20;64.61
72921;BME280;61064;51.654;5.476;2023-04-28T01:13:40;101309.41;;;9.15;64.95
72921;BME280;61064;51.654;5.476;2023-04-28T01:16:06;101300.53;;;9.15;64.93
72921;BME280;61064;51.654;5.476;2023-04-28T01:18:31;101288.03;;;9.09;64.74
72921;BME280;61064;51.654;5.476;2023-04-28T01:20:57;101296.03;;;9.11;64.87
72921;BME280;61064;51.654;5.476;2023-04-28T01:23:22;101280.94;;;9.07;65.04
72921;BME280;61064;51.654;5.476;2023-04-28T01:25:48;101280.84;;;9.04;65.07
72921;BME280;61064;51.654;5.476;2023-04-28T01:28:13;101278.19;;;9.02;65.36
72921;BME280;61064;51.654;5.476;2023-04-28T01:30:38;101275.41;;;8.96;65.48
72921;BME280;61064;51.654;5.476;2023-04-28T01:33:04;101284.28;;;8.98;65.78
72921;BME280;61064;51.654;5.476;2023-04-28T01:35:29;101278.94;;;8.95;65.70
72921;BME280;61064;51.654;5.476;2023-04-28T01:37:55;101279.84;;;8.96;65.88
72921;BME280;61064;51.654;5.476;2023-04-28T01:40:20;101272.72;;;8.95;65.56
72921;BME280;61064;51.654;5.476;2023-04-28T01:42:45;101267.47;;;8.96;65.45
72921;BME280;61064;51.654;5.476;2023-04-28T01:45:11;101266.56;;;8.96;65.69
72921;BME280;61064;51.654;5.476;2023-04-28T01:47:36;101260.31;;;8.94;65.54
72921;BME280;61064;51.654;5.476;2023-04-28T01:50:02;101259.38;;;8.92;65.55
72921;BME280;61064;51.654;5.476;2023-04-28T01:52:27;101256.72;;;8.90;65.93
72921;BME280;61064;51.654;5.476;2023-04-28T01:54:53;101249.66;;;8.91;65.95
72921;BME280;61064;51.654;5.476;2023-04-28T01:57:18;101247.91;;;8.91;65.87
72921;BME280;61064;51.654;5.476;2023-04-28T01:59:44;101243.50;;;8.93;66.02
72921;BME280;61064;51.654;5.476;2023-04-28T02:02:10;101235.50;;;8.92;65.81
72921;BME280;61064;51.654;5.476;2023-04-28T02:04:37;101232.84;;;8.92;66.05
72921;BME280;61064;51.654;5.476;2023-04-28T02:07:02;101237.28;;;8.91;66.00
72921;BME280;61064;51.654;5.476;2023-04-28T02:09:31;101250.56;;;8.91;66.12
72921;BME280;61064;51.654;5.476;2023-04-28T02:11:57;101258.59;;;8.96;66.33
72921;BME280;61064;51.654;5.476;2023-04-28T02:14:24;101251.50;;;8.95;65.97
72921;BME280;61064;51.654;5.476;2023-04-28T02:16:49;101232.03;;;8.94;65.73
72921;BME280;61064;51.654;5.476;2023-04-28T02:19:14;101232.88;;;8.93;66.14
72921;BME280;61064;51.654;5.476;2023-04-28T02:21:41;101226.72;;;8.94;66.22
72921;BME280;61064;51.654;5.476;2023-04-28T02:24:06;101228.47;;;8.94;66.33
72921;BME280;61064;51.654;5.476;2023-04-28T02:26:33;101234.72;;;8.97;66.29
72921;BME280;61064;51.654;5.476;2023-04-28T02:28:58;101217.03;;;8.96;66.33
72921;BME280;61064;51.654;5.476;2023-04-28T02:31:23;101206.44;;;8.96;66.30
72921;BME280;61064;51.654;5.476;2023-04-28T02:33:49;101203.78;;;8.96;66.44
72921;BME280;61064;51.654;5.476;2023-04-28T02:36:14;101194.03;;;8.95;66.41
72921;BME280;61064;51.654;5.476;2023-04-28T02:38:39;101188.72;;;8.95;66.66
72921;BME280;61064;51.654;5.476;2023-04-28T02:41:06;101186.91;;;8.94;66.71
72921;BME280;61064;51.654;5.476;2023-04-28T02:43:33;101185.97;;;8.92;66.84
72921;BME280;61064;51.654;5.476;2023-04-28T02:46:00;101190.41;;;8.92;66.77
72921;BME280;61064;51.654;5.476;2023-04-28T02:48:25;101184.22;;;8.91;67.03
72921;BME280;61064;51.654;5.476;2023-04-28T02:50:51;101171.81;;;8.90;66.98
72921;BME280;61064;51.654;5.476;2023-04-28T02:53:18;101164.69;;;8.88;67.31
72921;BME280;61064;51.654;5.476;2023-04-28T02:55:43;101166.44;;;8.86;67.20
72921;BME280;61064;51.654;5.476;2023-04-28T02:58:09;101168.16;;;8.84;67.36
72921;BME280;61064;51.654;5.476;2023-04-28T03:00:34;101162.75;;;8.79;67.49
72921;BME280;61064;51.654;5.476;2023-04-28T03:03:00;101145.94;;;8.79;67.60
72921;BME280;61064;51.654;5.476;2023-04-28T03:05:26;101153.94;;;8.82;67.88
72921;BME280;61064;51.654;5.476;2023-04-28T03:07:51;101158.44;;;8.84;67.66
72921;BME280;61064;51.654;5.476;2023-04-28T03:10:17;101158.44;;;8.84;67.79
72921;BME280;61064;51.654;5.476;2023-04-28T03:12:42;101154.88;;;8.84;67.97
72921;BME280;61064;51.654;5.476;2023-04-28T03:15:08;101157.56;;;8.87;68.36
72921;BME280;61064;51.654;5.476;2023-04-28T03:17:34;101164.72;;;8.89;68.24
72921;BME280;61064;51.654;5.476;2023-04-28T03:20:01;101155.03;;;8.91;68.03
72921;BME280;61064;51.654;5.476;2023-04-28T03:22:27;101153.25;;;8.90;68.56
72921;BME280;61064;51.654;5.476;2023-04-28T03:24:52;101148.84;;;8.92;68.36
72921;BME280;61064;51.654;5.476;2023-04-28T03:27:17;101148.84;;;8.92;68.55
72921;BME280;61064;51.654;5.476;2023-04-28T03:29:43;101148.84;;;8.92;68.53
72921;BME280;61064;51.654;5.476;2023-04-28T03:32:08;101154.22;;;8.95;68.76
72921;BME280;61064;51.654;5.476;2023-04-28T03:34:33;101150.63;;;8.93;68.61
72921;BME280;61064;51.654;5.476;2023-04-28T03:36:59;101144.50;;;8.97;68.79
72921;BME280;61064;51.654;5.476;2023-04-28T03:39:24;101139.19;;;8.97;69.04
72921;BME280;61064;51.654;5.476;2023-04-28T03:41:50;101141.88;;;8.99;69.23
72921;BME280;61064;51.654;5.476;2023-04-28T03:44:15;101137.44;;;8.96;68.99
72921;BME280;61064;51.654;5.476;2023-04-28T03:46:40;101127.66;;;8.94;69.41
72921;BME280;61064;51.654;5.476;2023-04-28T03:49:06;101123.28;;;8.96;69.42
72921;BME280;61064;51.654;5.476;2023-04-28T03:51:31;101128.69;;;9.03;69.67
72921;BME280;61064;51.654;5.476;2023-04-28T03:53:57;101132.28;;;9.05;69.81
72921;BME280;61064;51.654;5.476;2023-04-28T03:56:22;101134.88;;;9.04;69.84
72921;BME280;61064;51.654;5.476;2023-04-28T03:58:48;101142.94;;;9.08;69.88
72921;BME280;61064;51.654;5.476;2023-04-28T04:01:13;101131.41;;;9.06;70.18
72921;BME280;61064;51.654;5.476;2023-04-28T04:03:39;101133.31;;;9.13;70.21
72921;BME280;61064;51.654;5.476;2023-04-28T04:06:05;101135.09;;;9.16;70.45
72921;BME280;61064;51.654;5.476;2023-04-28T04:08:31;101120.06;;;9.16;70.33
72921;BME280;61064;51.654;5.476;2023-04-28T04:10:57;101121.00;;;9.20;70.28
72921;BME280;61064;51.654;5.476;2023-04-28T04:13:23;101120.16;;;9.21;70.47
72921;BME280;61064;51.654;5.476;2023-04-28T04:15:48;101108.66;;;9.22;70.59
72921;BME280;61064;51.654;5.476;2023-04-28T04:18:14;101105.19;;;9.26;70.88
72921;BME280;61064;51.654;5.476;2023-04-28T04:20:40;101101.59;;;9.23;70.88
72921;BME280;61064;51.654;5.476;2023-04-28T04:23:05;101101.63;;;9.24;71.03
72921;BME280;61064;51.654;5.476;2023-04-28T04:25:31;101108.75;;;9.28;71.18
72921;BME280;61064;51.654;5.476;2023-04-28T04:27:57;101105.25;;;9.31;71.48
72921;BME280;61064;51.654;5.476;2023-04-28T04:30:22;101113.25;;;9.32;71.53
72921;BME280;61064;51.654;5.476;2023-04-28T04:32:48;101104.41;;;9.33;71.54
72921;BME280;61064;51.654;5.476;2023-04-28T04:35:13;101105.34;;;9.35;71.77
72921;BME280;61064;51.654;5.476;2023-04-28T04:37:39;101094.69;;;9.34;71.64
72921;BME280;61064;51.654;5.476;2023-04-28T04:40:05;101110.66;;;9.37;71.81
72921;BME280;61064;51.654;5.476;2023-04-28T04:42:30;101099.13;;;9.36;71.81
72921;BME280;61064;51.654;5.476;2023-04-28T04:44:55;101096.50;;;9.38;71.84
72921;BME280;61064;51.654;5.476;2023-04-28T04:47:21;101098.34;;;9.42;72.07
72921;BME280;61064;51.654;5.476;2023-04-28T04:49:47;101098.41;;;9.45;72.33
72921;BME280;61064;51.654;5.476;2023-04-28T04:52:13;101100.19;;;9.47;72.18
72921;BME280;61064;51.654;5.476;2023-04-28T04:54:39;101091.34;;;9.45;72.23
72921;BME280;61064;51.654;5.476;2023-04-28T04:57:04;101093.13;;;9.48;72.59
72921;BME280;61064;51.654;5.476;2023-04-28T04:59:30;101087.81;;;9.46;72.77
72921;BME280;61064;51.654;5.476;2023-04-28T05:01:56;101094.03;;;9.50;72.58
72921;BME280;61064;51.654;5.476;2023-04-28T05:04:21;101094.03;;;9.50;72.86
72921;BME280;61064;51.654;5.476;2023-04-28T05:06:46;101086.09;;;9.51;73.06
72921;BME280;61064;51.654;5.476;2023-04-28T05:09:12;101081.69;;;9.52;73.10
72921;BME280;61064;51.654;5.476;2023-04-28T05:11:37;101090.56;;;9.54;73.23
72921;BME280;61064;51.654;5.476;2023-04-28T05:14:03;101085.31;;;9.57;73.22
72921;BME280;61064;51.654;5.476;2023-04-28T05:16:28;101082.66;;;9.58;73.51
72921;BME280;61064;51.654;5.476;2023-04-28T05:18:53;101067.69;;;9.64;73.71
72921;BME280;61064;51.654;5.476;2023-04-28T05:21:19;101059.75;;;9.67;73.86
72921;BME280;61064;51.654;5.476;2023-04-28T05:23:45;101049.13;;;9.67;73.80
72921;BME280;61064;51.654;5.476;2023-04-28T05:26:10;101046.50;;;9.68;73.96
72921;BME280;61064;51.654;5.476;2023-04-28T05:28:36;101048.34;;;9.75;74.03
72921;BME280;61064;51.654;5.476;2023-04-28T05:31:01;101056.38;;;9.78;74.29
72921;BME280;61064;51.654;5.476;2023-04-28T05:33:26;101048.44;;;9.83;74.10
72921;BME280;61064;51.654;5.476;2023-04-28T05:35:52;101057.34;;;9.86;74.25
72921;BME280;61064;51.654;5.476;2023-04-28T05:38:17;101051.16;;;9.87;74.24
72921;BME280;61064;51.654;5.476;2023-04-28T05:40:42;101051.25;;;9.93;74.64
72921;BME280;61064;51.654;5.476;2023-04-28T05:43:08;101056.59;;;9.96;74.47
72921;BME280;61064;51.654;5.476;2023-04-28T05:45:33;101055.78;;;10.03;74.57
72921;BME280;61064;51.654;5.476;2023-04-28T05:47:59;101046.09;;;10.07;74.52
72921;BME280;61064;51.654;5.476;2023-04-28T05:50:24;101046.16;;;10.12;74.59
72921;BME280;61064;51.654;5.476;2023-04-28T05:52:50;101052.34;;;10.12;74.78
72921;BME280;61064;51.654;5.476;2023-04-28T05:55:15;101046.16;;;10.15;75.00
72921;BME280;61064;51.654;5.476;2023-04-28T05:57:40;101064.03;;;10.23;74.82
72921;BME280;61064;51.654;5.476;2023-04-28T06:00:06;101054.31;;;10.27;75.06
72921;BME280;61064;51.654;5.476;2023-04-28T06:02:32;101050.81;;;10.29;75.06
72921;BME280;61064;51.654;5.476;2023-04-28T06:04:57;101041.91;;;10.26;75.09
72921;BME280;61064;51.654;5.476;2023-04-28T06:07:22;101053.56;;;10.38;75.26
72921;BME280;61064;51.654;5.476;2023-04-28T06:09:48;101061.59;;;10.45;75.26
72921;BME280;61064;51.654;5.476;2023-04-28T06:12:14;101058.09;;;10.47;75.31
72921;BME280;61064;51.654;5.476;2023-04-28T06:14:39;101063.47;;;10.52;75.34
72921;BME280;61064;51.654;5.476;2023-04-28T06:17:04;101061.69;;;10.54;75.17
72921;BME280;61064;51.654;5.476;2023-04-28T06:19:30;101063.47;;;10.55;75.44
72921;BME280;61064;51.654;5.476;2023-04-28T06:21:55;101068.88;;;10.62;75.54
72921;BME280;61064;51.654;5.476;2023-04-28T06:24:21;101052.03;;;10.62;75.65
72921;BME280;61064;51.654;5.476;2023-04-28T06:26:46;101050.34;;;10.70;75.60
72921;BME280;61064;51.654;5.476;2023-04-28T06:29:11;101045.06;;;10.76;75.56
72921;BME280;61064;51.654;5.476;2023-04-28T06:31:37;101044.22;;;10.83;75.92
72921;BME280;61064;51.654;5.476;2023-04-28T06:34:02;101046.06;;;10.90;75.96
72921;BME280;61064;51.654;5.476;2023-04-28T06:36:27;101048.75;;;10.93;76.02
72921;BME280;61064;51.654;5.476;2023-04-28T06:38:53;101046.13;;;10.96;76.09
72921;BME280;61064;51.654;5.476;2023-04-28T06:41:18;101050.59;;;11.00;76.04
72921;BME280;61064;51.654;5.476;2023-04-28T06:43:44;101053.28;;;11.02;76.28
72921;BME280;61064;51.654;5.476;2023-04-28T06:46:09;101055.09;;;11.07;76.32
72921;BME280;61064;51.654;5.476;2023-04-28T06:48:37;101071.09;;;11.15;76.35
72921;BME280;61064;51.654;5.476;2023-04-28T06:51:03;101060.50;;;11.18;76.74
72921;BME280;61064;51.654;5.476;2023-04-28T06:53:29;101052.53;;;11.19;76.57
72921;BME280;61064;51.654;5.476;2023-04-28T06:55:54;101040.09;;;11.18;76.64
72921;BME280;61064;51.654;5.476;2023-04-28T06:58:20;101032.97;;;11.20;76.90
72921;BME280;61064;51.654;5.476;2023-04-28T07:00:46;101036.56;;;11.24;77.01
72921;BME280;61064;51.654;5.476;2023-04-28T07:03:11;101026.78;;;11.26;77.09
72921;BME280;61064;51.654;5.476;2023-04-28T07:05:36;101033.06;;;11.33;77.13
72921;BME280;61064;51.654;5.476;2023-04-28T07:08:02;101029.50;;;11.31;77.14
72921;BME280;61064;51.654;5.476;2023-04-28T07:10:27;101034.00;;;11.36;77.47
72921;BME280;61064;51.654;5.476;2023-04-28T07:12:53;101024.22;;;11.37;77.89
72921;BME280;61064;51.654;5.476;2023-04-28T07:15:18;101015.38;;;11.41;77.66
72921;BME280;61064;51.654;5.476;2023-04-28T07:17:43;101025.16;;;11.49;78.08
72921;BME280;61064;51.654;5.476;2023-04-28T07:20:09;101033.22;;;11.57;78.01
72921;BME280;61064;51.654;5.476;2023-04-28T07:22:35;101022.56;;;11.60;78.37
72921;BME280;61064;51.654;5.476;2023-04-28T07:25:00;101020.84;;;11.70;78.39
72921;BME280;61064;51.654;5.476;2023-04-28T07:27:26;101020.00;;;11.74;78.96
72921;BME280;61064;51.654;5.476;2023-04-28T07:29:51;101013.78;;;11.76;78.82
72921;BME280;61064;51.654;5.476;2023-04-28T07:32:16;101016.50;;;11.81;78.84
72921;BME280;61064;51.654;5.476;2023-04-28T07:34:42;101031.59;;;11.85;79.20
72921;BME280;61064;51.654;5.476;2023-04-28T07:37:07;101015.63;;;11.85;79.27
72921;BME280;61064;51.654;5.476;2023-04-28T07:39:33;101023.63;;;11.94;79.55
72921;BME280;61064;51.654;5.476;2023-04-28T07:42:02;101020.06;;;11.89;79.71
72921;BME280;61064;51.654;5.476;2023-04-28T07:44:28;101026.31;;;11.91;79.83
72921;BME280;61064;51.654;5.476;2023-04-28T07:46:54;101025.41;;;11.93;79.90
72921;BME280;61064;51.654;5.476;2023-04-28T07:49:19;101038.78;;;12.01;80.31
72921;BME280;61064;51.654;5.476;2023-04-28T07:51:45;101029.00;;;12.00;80.28
72921;BME280;61064;51.654;5.476;2023-04-28T07:54:10;101034.38;;;12.07;80.44
72921;BME280;61064;51.654;5.476;2023-04-28T07:56:36;101027.22;;;12.05;80.39
72921;BME280;61064;51.654;5.476;2023-04-28T07:59:01;101031.69;;;12.06;80.51
72921;BME280;61064;51.654;5.476;2023-04-28T08:01:27;101029.91;;;12.09;80.71
72921;BME280;61064;51.654;5.476;2023-04-28T08:03:52;101036.16;;;12.16;80.88
72921;BME280;61064;51.654;5.476;2023-04-28T08:06:18;101048.63;;;12.20;80.86
72921;BME280;61064;51.654;5.476;2023-04-28T08:08:43;101024.63;;;12.20;81.11
72921;BME280;61064;51.654;5.476;2023-04-28T08:11:09;101045.09;;;12.30;81.38
72921;BME280;61064;51.654;5.476;2023-04-28T08:13:35;101038.88;;;12.36;81.60
72921;BME280;61064;51.654;5.476;2023-04-28T08:16:00;101031.75;;;12.38;81.74
72921;BME280;61064;51.654;5.476;2023-04-28T08:18:26;101030.88;;;12.39;81.76
72921;BME280;61064;51.654;5.476;2023-04-28T08:20:51;101030.88;;;12.45;81.97
72921;BME280;61064;51.654;5.476;2023-04-28T08:23:17;101031.81;;;12.58;82.12
72921;BME280;61064;51.654;5.476;2023-04-28T08:25:42;101026.47;;;12.64;82.20
72921;BME280;61064;51.654;5.476;2023-04-28T08:28:07;101033.59;;;12.66;82.42
72921;BME280;61064;51.654;5.476;2023-04-28T08:30:33;101034.50;;;12.70;82.46
72921;BME280;61064;51.654;5.476;2023-04-28T08:32:59;101042.47;;;12.77;82.58
72921;BME280;61064;51.654;5.476;2023-04-28T08:35:24;101027.34;;;12.76;82.66
72921;BME280;61064;51.654;5.476;2023-04-28T08:37:51;101029.13;;;12.88;82.84
72921;BME280;61064;51.654;5.476;2023-04-28T08:40:17;101022.91;;;12.89;82.72
72921;BME280;61064;51.654;5.476;2023-04-28T08:42:43;101023.81;;;12.91;83.29
72921;BME280;61064;51.654;5.476;2023-04-28T08:45:12;101030.94;;;12.98;83.13
72921;BME280;61064;51.654;5.476;2023-04-28T08:47:38;101034.50;;;13.03;82.91
72921;BME280;61064;51.654;5.476;2023-04-28T08:50:11;101033.59;;;13.03;83.07
72921;BME280;61064;51.654;5.476;2023-04-28T08:52:37;101024.69;;;13.05;83.35
72921;BME280;61064;51.654;5.476;2023-04-28T08:57:48;101025.56;;;13.06;83.68
72921;BME280;61064;51.654;5.476;2023-04-28T09:00:15;101025.59;;;13.07;83.50
72921;BME280;61064;51.654;5.476;2023-04-28T09:02:41;101039.84;;;13.12;83.58
72921;BME280;61064;51.654;5.476;2023-04-28T09:05:11;101039.88;;;13.14;83.85
72921;BME280;61064;51.654;5.476;2023-04-28T09:07:37;101036.28;;;13.13;83.82
72921;BME280;61064;51.654;5.476;2023-04-28T09:10:15;101030.94;;;13.18;84.18
72921;BME280;61064;51.654;5.476;2023-04-28T09:12:41;101030.06;;;13.19;83.94
72921;BME280;61064;51.654;5.476;2023-04-28T09:15:07;101025.59;;;13.22;84.14
72921;BME280;61064;51.654;5.476;2023-04-28T09:17:49;101022.00;;;13.26;84.47
72921;BME280;61064;51.654;5.476;2023-04-28T09:20:25;101030.00;;;13.32;84.43
72921;BME280;61064;51.654;5.476;2023-04-28T09:22:51;101033.59;;;13.36;84.24
72921;BME280;61064;51.654;5.476;2023-04-28T09:25:19;101019.34;;;13.37;84.39
72921;BME280;61064;51.654;5.476;2023-04-28T09:27:46;101031.78;;;13.40;84.41
72921;BME280;61064;51.654;5.476;2023-04-28T09:30:11;101029.09;;;13.46;84.66
72921;BME280;61064;51.654;5.476;2023-04-28T09:32:37;101034.44;;;13.53;84.58
72921;BME280;61064;51.654;5.476;2023-04-28T09:35:02;101034.41;;;13.55;84.65
72921;BME280;61064;51.654;5.476;2023-04-28T09:37:29;101039.78;;;13.59;84.67
72921;BME280;61064;51.654;5.476;2023-04-28T09:39:56;101026.41;;;13.58;84.80
72921;BME280;61064;51.654;5.476;2023-04-28T09:45:05;101026.38;;;13.62;84.79
72921;BME280;61064;51.654;5.476;2023-04-28T09:47:31;101024.59;;;13.63;84.79
72921;BME280;61064;51.654;5.476;2023-04-28T09:50:00;101026.41;;;13.59;84.74
72921;BME280;61064;51.654;5.476;2023-04-28T09:52:26;101031.75;;;13.58;84.80
72921;BME280;61064;51.654;5.476;2023-04-28T09:54:53;101034.41;;;13.61;85.00
72921;BME280;61064;51.654;5.476;2023-04-28T09:57:19;101030.88;;;13.59;85.12
72921;BME280;61064;51.654;5.476;2023-04-28T09:59:48;101024.59;;;13.63;85.42
72921;BME280;61064;51.654;5.476;2023-04-28T10:02:14;101028.16;;;13.68;85.37
72921;BME280;61064;51.654;5.476;2023-04-28T10:04:44;101034.38;;;13.73;85.49
72921;BME280;61064;51.654;5.476;2023-04-28T10:07:14;101026.34;;;13.74;85.61
72921;BME280;61064;51.654;5.476;2023-04-28T10:09:41;101022.78;;;13.76;85.58
72921;BME280;61064;51.654;5.476;2023-04-28T10:12:13;101032.53;;;13.83;85.62
72921;BME280;61064;51.654;5.476;2023-04-28T10:14:38;101020.06;;;13.85;85.77
72921;BME280;61064;51.654;5.476;2023-04-28T10:17:05;101029.84;;;13.90;85.78
72921;BME280;61064;51.654;5.476;2023-04-28T10:19:31;101028.94;;;13.94;85.87
72921;BME280;61064;51.654;5.476;2023-04-28T10:22:16;101021.78;;;13.99;85.80
72921;BME280;61064;51.654;5.476;2023-04-28T10:27:44;101030.66;;;14.06;85.74
72921;BME280;61064;51.654;5.476;2023-04-28T10:30:17;101018.19;;;14.06;86.00
72921;BME280;61064;51.654;5.476;2023-04-28T10:32:43;101019.03;;;14.11;85.65
72921;BME280;61064;51.654;5.476;2023-04-28T10:38:09;101027.03;;;14.19;85.66
72921;BME280;61064;51.654;5.476;2023-04-28T10:43:04;101013.66;;;14.18;85.65
72921;BME280;61064;51.654;5.476;2023-04-28T10:48:16;101022.56;;;14.26;85.60
72921;BME280;61064;51.654;5.476;2023-04-28T10:56:10;101032.34;;;14.27;85.52
72921;BME280;61064;51.654;5.476;2023-04-28T10:58:36;101022.53;;;14.29;85.54
72921;BME280;61064;51.654;5.476;2023-04-28T11:03:49;101022.53;;;14.30;85.34
72921;BME280;61064;51.654;5.476;2023-04-28T11:06:35;101022.53;;;14.29;85.72
72921;BME280;61064;51.654;5.476;2023-04-28T11:11:36;101023.38;;;14.34;85.81
72921;BME280;61064;51.654;5.476;2023-04-28T11:16:54;101014.44;;;14.38;85.82
72921;BME280;61064;51.654;5.476;2023-04-28T11:19:30;101002.84;;;14.39;85.75
72921;BME280;61064;51.654;5.476;2023-04-28T11:22:02;101011.75;;;14.44;85.82
72921;BME280;61064;51.654;5.476;2023-04-28T11:24:29;101014.41;;;14.47;85.66
72921;BME280;61064;51.654;5.476;2023-04-28T11:27:00;101004.59;;;14.47;85.68
72921;BME280;61064;51.654;5.476;2023-04-28T11:32:03;100995.69;;;14.45;85.36
72921;BME280;61064;51.654;5.476;2023-04-28T11:34:28;100999.25;;;14.47;85.40
72921;BME280;61064;51.654;5.476;2023-04-28T11:36:54;101007.19;;;14.55;85.50
72921;BME280;61064;51.654;5.476;2023-04-28T11:39:31;100999.19;;;14.53;85.54
72921;BME280;61064;51.654;5.476;2023-04-28T11:41:58;101009.84;;;14.61;85.56
72921;BME280;61064;51.654;5.476;2023-04-28T11:44:26;101012.47;;;14.66;85.73
72921;BME280;61064;51.654;5.476;2023-04-28T11:46:57;101018.72;;;14.69;85.75
72921;BME280;61064;51.654;5.476;2023-04-28T11:49:45;101024.06;;;14.69;85.60
72921;BME280;61064;51.654;5.476;2023-04-28T11:52:11;101009.78;;;14.67;85.57
72921;BME280;61064;51.654;5.476;2023-04-28T11:54:38;101008.00;;;14.71;85.57
72921;BME280;61064;51.654;5.476;2023-04-28T11:57:20;101020.47;;;14.75;85.79
72921;BME280;61064;51.654;5.476;2023-04-28T11:59:46;101018.66;;;14.74;85.59
72921;BME280;61064;51.654;5.476;2023-04-28T12:02:11;101019.53;;;14.77;85.55
72921;BME280;61064;51.654;5.476;2023-04-28T12:04:37;101026.66;;;14.81;85.66
72921;BME280;61064;51.654;5.476;2023-04-28T12:07:09;101023.97;;;14.81;85.84
72921;BME280;61064;51.654;5.476;2023-04-28T12:09:39;101029.34;;;14.81;85.89
72921;BME280;61064;51.654;5.476;2023-04-28T12:12:26;101037.34;;;14.83;85.92
72921;BME280;61064;51.654;5.476;2023-04-28T12:14:57;101030.25;;;14.77;85.92
72921;BME280;61064;51.654;5.476;2023-04-28T12:19:49;101033.84;;;14.76;86.04
72921;BME280;61064;51.654;5.476;2023-04-28T12:22:15;101032.06;;;14.72;86.24
72921;BME280;61064;51.654;5.476;2023-04-28T12:24:41;101041.00;;;14.74;86.30
72921;BME280;61064;51.654;5.476;2023-04-28T12:29:41;101058.88;;;14.69;86.42
72921;BME280;61064;51.654;5.476;2023-04-28T12:32:09;101051.81;;;14.59;86.45
72921;BME280;61064;51.654;5.476;2023-04-28T12:34:36;101057.19;;;14.57;86.39
72921;BME280;61064;51.654;5.476;2023-04-28T12:37:03;101061.69;;;14.51;86.49
72921;BME280;61064;51.654;5.476;2023-04-28T12:39:32;101069.75;;;14.45;86.62
72921;BME280;61064;51.654;5.476;2023-04-28T12:41:59;101059.97;;;14.36;86.54
72921;BME280;61064;51.654;5.476;2023-04-28T12:44:36;101076.00;;;14.36;86.60
72921;BME280;61064;51.654;5.476;2023-04-28T12:47:03;101074.25;;;14.31;86.79
72921;BME280;61064;51.654;5.476;2023-04-28T12:49:30;101063.59;;;14.23;86.59
72921;BME280;61064;51.654;5.476;2023-04-28T12:51:59;101068.97;;;14.20;86.73
72921;BME280;61064;51.654;5.476;2023-04-28T12:54:25;101075.22;;;14.21;86.64
72921;BME280;61064;51.654;5.476;2023-04-28T12:56:51;101069.88;;;14.14;86.55
72921;BME280;61064;51.654;5.476;2023-04-28T12:59:18;101064.53;;;14.11;86.60
72921;BME280;61064;51.654;5.476;2023-04-28T13:01:44;101067.22;;;14.13;86.64
72921;BME280;61064;51.654;5.476;2023-04-28T13:04:09;101063.66;;;14.09;86.39
72921;BME280;61064;51.654;5.476;2023-04-28T13:06:35;101078.81;;;14.09;86.62
72921;BME280;61064;51.654;5.476;2023-04-28T13:09:00;101068.13;;;14.07;86.35
72921;BME280;61064;51.654;5.476;2023-04-28T13:11:33;101071.72;;;14.00;86.62
72921;BME280;61064;51.654;5.476;2023-04-28T13:14:01;101077.03;;;14.05;86.45
72921;BME280;61064;51.654;5.476;2023-04-28T13:16:28;101059.22;;;14.02;86.34
72921;BME280;61064;51.654;5.476;2023-04-28T13:18:55;101071.69;;;14.09;86.44
72921;BME280;61064;51.654;5.476;2023-04-28T13:21:22;101075.22;;;14.10;86.47
72921;BME280;61064;51.654;5.476;2023-04-28T13:23:48;101065.41;;;14.10;86.37
72921;BME280;61064;51.654;5.476;2023-04-28T13:26:14;101061.84;;;14.13;86.49
72921;BME280;61064;51.654;5.476;2023-04-28T13:28:39;101062.69;;;14.23;86.62